Time;durP1;ratioP1;P1;durP2;ratioP2;P2;SDS_P1;SDS_P2;PMS_P1;PMS_P2;Temp;Humidity;BMP_temperature;BMP_pressure;BME280_temperature;BME280_humidity;BME280_pressure;Samples;Min_cycle;Max_cycle;Signal;HPM_P1;HPM_P2
2022/10/02 00:01:46;;;;;;;0.10;0.10;;;;;;;;;;5044290;28;20244;-73
2022/10/02 00:04:14;;;;;;;0.10;0.10;;;;;;;;;;5044927;28;20206;-73
2022/10/02 00:06:45;;;;;;;0.10;0.10;;;;;;;;;;5044370;28;20246;-74
2022/10/02 00:09:15;;;;;;;0.10;0.10;;;;;;;;;;5045272;28;20193;-72
2022/10/02 00:11:43;;;;;;;0.10;0.10;;;;;;;;;;5044368;28;20239;-73
2022/10/02 00:14:11;;;;;;;0.10;0.10;;;;;;;;;;5044967;28;20204;-74
2022/10/02 00:16:40;;;;;;;0.10;0.10;;;;;;;;;;5043910;28;20300;-73
2022/10/02 00:19:06;;;;;;;0.10;0.10;;;;;;;;;;5045317;28;20231;-73
2022/10/02 00:21:41;;;;;;;0.10;0.10;;;;;;;;;;5043098;28;20241;-73
2022/10/02 00:24:13;;;;;;;0.10;0.10;;;;;;;;;;5045258;28;20203;-73
2022/10/02 00:26:40;;;;;;;0.10;0.10;;;;;;;;;;5043984;28;20322;-74
2022/10/02 00:29:15;;;;;;;0.10;0.10;;;;;;;;;;5045722;28;20232;-73
2022/10/02 00:31:45;;;;;;;0.10;0.10;;;;;;;;;;5044580;28;20308;-73
2022/10/02 00:34:20;;;;;;;0.10;0.10;;;;;;;;;;5045053;28;20206;-73
2022/10/02 00:36:49;;;;;;;0.10;0.10;;;;;;;;;;5044970;28;20242;-73
2022/10/02 00:39:21;;;;;;;0.10;0.10;;;;;;;;;;5044165;28;20208;-73
2022/10/02 00:41:59;;;;;;;0.10;0.10;;;;;;;;;;5044936;28;20239;-74
2022/10/02 00:44:35;;;;;;;0.10;0.10;;;;;;;;;;5042874;28;20208;-73
2022/10/02 00:47:04;;;;;;;0.10;0.10;;;;;;;;;;5046680;28;20236;-74
2022/10/02 00:49:34;;;;;;;0.10;0.10;;;;;;;;;;5042587;28;20209;-73
2022/10/02 00:52:07;;;;;;;0.10;0.10;;;;;;;;;;5046762;28;20252;-73
2022/10/02 00:54:51;;;;;;;0.10;0.10;;;;;;;;;;5042126;28;20448;-73
2022/10/02 00:57:21;;;;;;;0.10;0.10;;;;;;;;;;5047262;28;20236;-74
2022/10/02 00:59:58;;;;;;;0.10;0.10;;;;;;;;;;5041832;28;20440;-73
2022/10/02 01:02:43;;;;;;;0.10;0.10;;;;;;;;;;5047143;28;20239;-74
2022/10/02 01:05:09;;;;;;;0.10;0.10;;;;;;;;;;5032275;28;20530;-73
2022/10/02 01:07:36;;;;;;;0.10;0.10;;;;;;;;;;5056672;28;20233;-73
2022/10/02 01:10:04;;;;;;;0.10;0.10;;;;;;;;;;5041720;28;20205;-72
2022/10/02 01:12:31;;;;;;;0.10;0.10;;;;;;;;;;5030641;28;20256;-74
2022/10/02 01:14:57;;;;;;;0.10;0.10;;;;;;;;;;5042269;28;20243;-74
2022/10/02 01:17:25;;;;;;;0.10;0.10;;;;;;;;;;5050919;28;20266;-73
2022/10/02 01:19:51;;;;;;;0.10;0.10;;;;;;;;;;5045335;28;20213;-74
2022/10/02 01:22:21;;;;;;;0.10;0.10;;;;;;;;;;5050594;28;20242;-73
2022/10/02 01:24:50;;;;;;;0.10;0.10;;;;;;;;;;5045615;28;20214;-74
2022/10/02 01:27:16;;;;;;;0.10;0.10;;;;;;;;;;5050566;28;20337;-73
2022/10/02 01:29:43;;;;;;;0.10;0.10;;;;;;;;;;5045303;28;20431;-73
2022/10/02 01:32:10;;;;;;;0.10;0.10;;;;;;;;;;5050680;28;20307;-73
2022/10/02 01:34:37;;;;;;;0.10;0.10;;;;;;;;;;5045438;28;20213;-72
2022/10/02 01:37:03;;;;;;;0.10;0.10;;;;;;;;;;5050150;28;20240;-73
2022/10/02 01:39:32;;;;;;;0.10;0.10;;;;;;;;;;5045549;28;20235;-73
2022/10/02 01:42:00;;;;;;;0.10;0.10;;;;;;;;;;5049688;28;20294;-72
2022/10/02 01:44:26;;;;;;;0.10;0.10;;;;;;;;;;5046014;28;20220;-73
2022/10/02 01:46:56;;;;;;;0.10;0.10;;;;;;;;;;5048552;28;20437;-73
2022/10/02 01:49:41;;;;;;;0.10;0.10;;;;;;;;;;5046361;28;20207;-73
2022/10/02 01:52:12;;;;;;;0.10;0.10;;;;;;;;;;5050036;28;20239;-72
2022/10/02 01:54:46;;;;;;;0.10;0.10;;;;;;;;;;5044924;28;20256;-77
2022/10/02 01:57:19;;;;;;;0.10;0.10;;;;;;;;;;5050120;28;20279;-75
2022/10/02 01:59:47;;;;;;;0.10;0.10;;;;;;;;;;5044648;28;20261;-75
2022/10/02 02:02:17;;;;;;;0.10;0.10;;;;;;;;;;5050145;28;20256;-77
2022/10/02 02:04:50;;;;;;;0.10;0.10;;;;;;;;;;5044558;28;20193;-76
2022/10/02 02:07:19;;;;;;;0.10;0.10;;;;;;;;;;5049842;28;20270;-76
2022/10/02 02:09:50;;;;;;;0.10;0.10;;;;;;;;;;5044645;28;20261;-76
2022/10/02 02:12:22;;;;;;;0.10;0.10;;;;;;;;;;5049943;28;20567;-76
2022/10/02 02:14:51;;;;;;;0.10;0.10;;;;;;;;;;5044778;28;20385;-76
2022/10/02 02:17:20;;;;;;;0.10;0.10;;;;;;;;;;5049851;28;20511;-76
2022/10/02 02:19:48;;;;;;;0.10;0.10;;;;;;;;;;5044658;28;20205;-76
2022/10/02 02:22:18;;;;;;;0.10;0.10;;;;;;;;;;5049506;28;20242;-76
2022/10/02 02:24:47;;;;;;;0.10;0.10;;;;;;;;;;5044589;28;20537;-75
2022/10/02 02:27:15;;;;;;;0.10;0.10;;;;;;;;;;5049213;28;20424;-77
2022/10/02 02:29:44;;;;;;;0.10;0.10;;;;;;;;;;5044113;28;20212;-77
2022/10/02 02:32:13;;;;;;;0.10;0.10;;;;;;;;;;5049408;28;20328;-76
2022/10/02 02:34:40;;;;;;;0.10;0.10;;;;;;;;;;5044417;28;20568;-75
2022/10/02 02:37:10;;;;;;;0.10;0.10;;;;;;;;;;5049370;28;20251;-76
2022/10/02 02:39:41;;;;;;;0.10;0.10;;;;;;;;;;5043951;28;20255;-76
2022/10/02 02:42:08;;;;;;;0.10;0.10;;;;;;;;;;5049489;28;20265;-76
2022/10/02 02:44:38;;;;;;;0.10;0.10;;;;;;;;;;5044158;28;20302;-76
2022/10/02 02:47:11;;;;;;;0.10;0.10;;;;;;;;;;5049105;28;20243;-76
2022/10/02 02:49:42;;;;;;;0.10;0.10;;;;;;;;;;5044110;28;20441;-77
2022/10/02 02:52:11;;;;;;;0.10;0.10;;;;;;;;;;5049079;28;20267;-76
2022/10/02 02:54:39;;;;;;;0.10;0.10;;;;;;;;;;5043741;28;20212;-77
2022/10/02 02:57:06;;;;;;;0.10;0.10;;;;;;;;;;5048961;28;20235;-76
2022/10/02 02:59:35;;;;;;;0.10;0.10;;;;;;;;;;5043651;28;20231;-75
2022/10/02 03:02:01;;;;;;;0.10;0.10;;;;;;;;;;5048420;28;20244;-76
2022/10/02 03:04:29;;;;;;;0.10;0.10;;;;;;;;;;5044198;28;20204;-76
2022/10/02 03:06:58;;;;;;;0.10;0.10;;;;;;;;;;5047596;28;20244;-75
2022/10/02 03:09:25;;;;;;;0.10;0.10;;;;;;;;;;5044359;28;20232;-76
2022/10/02 03:11:53;;;;;;;0.10;0.10;;;;;;;;;;5047080;28;20251;-76
2022/10/02 03:14:27;;;;;;;0.10;0.10;;;;;;;;;;5044848;28;20205;-76
2022/10/02 03:16:56;;;;;;;0.10;0.10;;;;;;;;;;5047235;28;20423;-76
2022/10/02 03:19:30;;;;;;;0.10;0.10;;;;;;;;;;5044135;28;20211;-76
2022/10/02 03:22:04;;;;;;;0.10;0.10;;;;;;;;;;5047590;28;20239;-76
2022/10/02 03:24:33;;;;;;;0.10;0.10;;;;;;;;;;5043666;28;20361;-77
2022/10/02 03:27:02;;;;;;;0.10;0.10;;;;;;;;;;5047289;28;20304;-76
2022/10/02 03:29:31;;;;;;;0.10;0.10;;;;;;;;;;5043734;28;20214;-76
2022/10/02 03:31:58;;;;;;;0.10;0.10;;;;;;;;;;5047511;28;20291;-76
2022/10/02 03:34:25;;;;;;;0.10;0.10;;;;;;;;;;5043694;28;20235;-76
2022/10/02 03:36:51;;;;;;;0.10;0.10;;;;;;;;;;5046643;28;20247;-76
2022/10/02 03:39:19;;;;;;;0.10;0.10;;;;;;;;;;5043974;28;20453;-76
2022/10/02 03:41:45;;;;;;;0.10;0.10;;;;;;;;;;5045806;28;20480;-76
2022/10/02 03:44:11;;;;;;;0.10;0.10;;;;;;;;;;5045386;28;20213;-77
2022/10/02 03:46:38;;;;;;;0.10;0.10;;;;;;;;;;5044712;28;20239;-75
2022/10/02 03:49:04;;;;;;;0.10;0.10;;;;;;;;;;5046256;28;20225;-76
2022/10/02 03:51:30;;;;;;;0.10;0.10;;;;;;;;;;5043598;28;20247;-77
2022/10/02 03:53:57;;;;;;;0.10;0.10;;;;;;;;;;5047141;28;20204;-76
2022/10/02 03:56:38;;;;;;;0.10;0.10;;;;;;;;;;5041949;28;20240;-76
2022/10/02 03:59:11;;;;;;;0.10;0.10;;;;;;;;;;5046068;28;20241;-76
2022/10/02 04:01:39;;;;;;;0.10;0.10;;;;;;;;;;5043636;28;20378;-75
2022/10/02 04:04:08;;;;;;;0.17;0.17;;;;;;;;;;5045958;28;20402;-74
2022/10/02 04:06:44;;;;;;;0.10;0.10;;;;;;;;;;5042627;28;20353;-75
2022/10/02 04:09:12;;;;;;;0.10;0.10;;;;;;;;;;5046199;28;20217;-78
2022/10/02 04:11:41;;;;;;;0.10;0.10;;;;;;;;;;5044384;28;20330;-76
2022/10/02 04:14:10;;;;;;;0.10;0.10;;;;;;;;;;5045493;28;20211;-76
2022/10/02 04:16:38;;;;;;;0.10;0.10;;;;;;;;;;5043809;28;20580;-76
2022/10/02 04:19:08;;;;;;;0.10;0.10;;;;;;;;;;5045759;28;20201;-76
2022/10/02 04:21:37;;;;;;;0.10;0.10;;;;;;;;;;5043705;28;20291;-75
2022/10/02 04:24:06;;;;;;;0.10;0.10;;;;;;;;;;5046195;28;20211;-76
2022/10/02 04:26:34;;;;;;;0.10;0.10;;;;;;;;;;5043482;28;20240;-76
2022/10/02 04:29:06;;;;;;;0.10;0.10;;;;;;;;;;5046400;28;20239;-76
2022/10/02 04:31:32;;;;;;;0.10;0.10;;;;;;;;;;5043454;28;20241;-75
2022/10/02 04:34:01;;;;;;;0.10;0.10;;;;;;;;;;5046422;28;20212;-76
2022/10/02 04:36:35;;;;;;;0.13;0.13;;;;;;;;;;5042767;28;20247;-77
2022/10/02 04:39:15;;;;;;;0.10;0.10;;;;;;;;;;5046309;28;20196;-76
2022/10/02 04:41:53;;;;;;;0.10;0.10;;;;;;;;;;5044512;28;20266;-76
2022/10/02 04:44:29;;;;;;;0.10;0.10;;;;;;;;;;5044055;28;20265;-73
2022/10/02 04:47:10;;;;;;;0.10;0.10;;;;;;;;;;5046070;28;20330;-72
2022/10/02 04:49:51;;;;;;;0.10;0.10;;;;;;;;;;5040320;28;20235;-74
2022/10/02 04:52:24;;;;;;;0.10;0.10;;;;;;;;;;5031094;28;20265;-73
2022/10/02 04:55:02;;;;;;;0.10;0.10;;;;;;;;;;5046241;28;20387;-69
2022/10/02 04:57:44;;;;;;;0.10;0.10;;;;;;;;;;5051427;28;20446;-70
2022/10/02 05:00:13;;;;;;;0.10;0.10;;;;;;;;;;5036145;28;20239;-70
2022/10/02 05:02:54;;;;;;;0.10;0.10;;;;;;;;;;5060370;28;20448;-71
2022/10/02 05:05:25;;;;;;;0.10;0.10;;;;;;;;;;5037876;28;20260;-69
2022/10/02 05:08:16;;;;;;;0.10;0.10;;;;;;;;;;5058587;28;20224;-70
2022/10/02 05:10:49;;;;;;;0.10;0.10;;;;;;;;;;5040157;28;20352;-71
2022/10/02 05:13:22;;;;;;;0.10;0.10;;;;;;;;;;5055540;28;20326;-71
2022/10/02 05:16:02;;;;;;;0.10;0.10;;;;;;;;;;5041403;28;20422;-76
2022/10/02 05:18:36;;;;;;;0.10;0.10;;;;;;;;;;5054106;28;20504;-76
2022/10/02 05:21:10;;;;;;;0.10;0.10;;;;;;;;;;5042964;28;20243;-76
2022/10/02 05:23:40;;;;;;;0.10;0.10;;;;;;;;;;5052561;28;20197;-76
2022/10/02 05:26:13;;;;;;;0.10;0.10;;;;;;;;;;5042997;28;20303;-75
2022/10/02 05:28:50;;;;;;;0.10;0.10;;;;;;;;;;5051740;28;20223;-76
2022/10/02 05:31:25;;;;;;;0.10;0.10;;;;;;;;;;5044440;28;20239;-76
2022/10/02 05:34:03;;;;;;;0.10;0.10;;;;;;;;;;5050764;28;20372;-73
2022/10/02 05:36:39;;;;;;;0.10;0.10;;;;;;;;;;5045865;28;20242;-75
2022/10/02 05:39:07;;;;;;;0.10;0.10;;;;;;;;;;5048576;28;20218;-73
2022/10/02 05:41:41;;;;;;;0.10;0.10;;;;;;;;;;5045874;28;20259;-74
2022/10/02 05:44:12;;;;;;;0.10;0.10;;;;;;;;;;5048252;28;20230;-75
2022/10/02 05:46:43;;;;;;;0.10;0.10;;;;;;;;;;5046722;28;20252;-74
2022/10/02 05:49:14;;;;;;;0.10;0.10;;;;;;;;;;5047484;28;20239;-74
2022/10/02 05:51:43;;;;;;;0.10;0.10;;;;;;;;;;5046813;28;20267;-74
2022/10/02 05:54:15;;;;;;;0.10;0.10;;;;;;;;;;5047676;28;20211;-74
2022/10/02 05:56:46;;;;;;;0.10;0.10;;;;;;;;;;5046723;28;20243;-74
2022/10/02 05:59:14;;;;;;;0.10;0.10;;;;;;;;;;5046994;28;20362;-73
2022/10/02 06:01:43;;;;;;;0.10;0.10;;;;;;;;;;5045004;28;20265;-74
2022/10/02 06:04:13;;;;;;;0.10;0.10;;;;;;;;;;5048329;28;20208;-74
2022/10/02 06:06:41;;;;;;;0.10;0.10;;;;;;;;;;5046278;28;20246;-74
2022/10/02 06:09:12;;;;;;;0.10;0.10;;;;;;;;;;5048012;28;20252;-73
2022/10/02 06:11:40;;;;;;;0.10;0.10;;;;;;;;;;5046203;28;20236;-69
2022/10/02 06:14:10;;;;;;;0.10;0.10;;;;;;;;;;5047837;28;20205;-71
2022/10/02 06:16:39;;;;;;;0.10;0.10;;;;;;;;;;5045979;28;20346;-70
2022/10/02 06:19:09;;;;;;;0.10;0.10;;;;;;;;;;5047938;28;20214;-70
2022/10/02 06:21:41;;;;;;;0.10;0.10;;;;;;;;;;5045451;28;20299;-71
2022/10/02 06:24:12;;;;;;;0.10;0.10;;;;;;;;;;5048026;28;20511;-70
2022/10/02 06:26:41;;;;;;;0.10;0.10;;;;;;;;;;5045922;28;20241;-71
2022/10/02 06:29:14;;;;;;;0.10;0.10;;;;;;;;;;5047472;28;20410;-71
2022/10/02 06:31:43;;;;;;;0.10;0.10;;;;;;;;;;5046000;28;20248;-70
2022/10/02 06:34:12;;;;;;;0.10;0.10;;;;;;;;;;5047198;28;20194;-70
2022/10/02 06:36:44;;;;;;;0.10;0.10;;;;;;;;;;5045409;28;20240;-71
2022/10/02 06:39:17;;;;;;;0.10;0.10;;;;;;;;;;5047230;28;20200;-70
2022/10/02 06:41:47;;;;;;;0.10;0.10;;;;;;;;;;5045684;28;20268;-69
2022/10/02 06:44:17;;;;;;;0.10;0.10;;;;;;;;;;5046919;28;20210;-69
2022/10/02 06:46:51;;;;;;;0.10;0.10;;;;;;;;;;5045574;28;20424;-70
2022/10/02 06:49:25;;;;;;;0.17;0.17;;;;;;;;;;5045905;28;20233;-70
2022/10/02 06:51:58;;;;;;;0.10;0.10;;;;;;;;;;5046853;28;20541;-70
2022/10/02 06:54:31;;;;;;;0.10;0.10;;;;;;;;;;5044830;28;20198;-69
2022/10/02 06:57:05;;;;;;;0.10;0.10;;;;;;;;;;5047578;28;20241;-70
2022/10/02 06:59:41;;;;;;;0.10;0.10;;;;;;;;;;5043895;28;20241;-69
2022/10/02 07:02:12;;;;;;;0.10;0.10;;;;;;;;;;5048810;28;20285;-71
2022/10/02 07:04:53;;;;;;;0.10;0.10;;;;;;;;;;5043995;28;20350;-70
2022/10/02 07:07:33;;;;;;;0.10;0.10;;;;;;;;;;5048824;28;20315;-70
2022/10/02 07:10:17;;;;;;;0.10;0.10;;;;;;;;;;5043517;28;20229;-70
2022/10/02 07:12:50;;;;;;;0.10;0.10;;;;;;;;;;5042644;28;20203;-70
2022/10/02 07:15:35;;;;;;;0.10;0.10;;;;;;;;;;5034334;28;20439;-70
2022/10/02 07:18:07;;;;;;;0.10;0.10;;;;;;;;;;5054789;28;20254;-70
2022/10/02 07:20:46;;;;;;;0.10;0.10;;;;;;;;;;5036892;28;20261;-71
2022/10/02 07:23:18;;;;;;;0.10;0.10;;;;;;;;;;5053705;28;20215;-70
2022/10/02 07:25:55;;;;;;;0.10;0.10;;;;;;;;;;5038043;28;20254;-69
2022/10/02 07:28:28;;;;;;;0.10;0.10;;;;;;;;;;5052273;28;20214;-70
2022/10/02 07:30:57;;;;;;;0.10;0.10;;;;;;;;;;5039388;28;20465;-70
2022/10/02 07:33:28;;;;;;;0.10;0.10;;;;;;;;;;5051820;28;20207;-71
2022/10/02 07:36:01;;;;;;;0.10;0.10;;;;;;;;;;5039455;28;20250;-70
2022/10/02 07:38:46;;;;;;;0.10;0.10;;;;;;;;;;5051505;28;20209;-70
2022/10/02 07:41:30;;;;;;;0.10;0.10;;;;;;;;;;5041498;28;20263;-70
2022/10/02 07:44:03;;;;;;;0.10;0.10;;;;;;;;;;5012601;28;20237;-70
2022/10/02 07:46:33;;;;;;;0.10;0.10;;;;;;;;;;5043371;28;20246;-70
2022/10/02 07:49:06;;;;;;;0.10;0.10;;;;;;;;;;5046969;28;20231;-69
2022/10/02 07:51:47;;;;;;;0.10;0.10;;;;;;;;;;5043853;28;20432;-70
2022/10/02 07:54:34;;;;;;;0.10;0.10;;;;;;;;;;5044840;28;20406;-70
2022/10/02 07:57:02;;;;;;;0.10;0.10;;;;;;;;;;5045470;28;20447;-69
2022/10/02 07:59:30;;;;;;;0.10;0.10;;;;;;;;;;5042876;28;20225;-70
2022/10/02 08:01:57;;;;;;;0.10;0.10;;;;;;;;;;5046551;28;20262;-70
2022/10/02 08:04:28;;;;;;;0.10;0.10;;;;;;;;;;5043798;28;20373;-70
2022/10/02 08:06:57;;;;;;;0.10;0.10;;;;;;;;;;5046449;28;20258;-69
2022/10/02 08:09:30;;;;;;;0.10;0.10;;;;;;;;;;5043486;28;20241;-70
2022/10/02 08:11:59;;;;;;;0.10;0.10;;;;;;;;;;5046568;28;20242;-70
2022/10/02 08:14:27;;;;;;;0.10;0.10;;;;;;;;;;5043303;28;20206;-70
2022/10/02 08:16:54;;;;;;;0.10;0.10;;;;;;;;;;5046089;28;20567;-72
2022/10/02 08:19:25;;;;;;;0.10;0.10;;;;;;;;;;5043778;28;20230;-71
2022/10/02 08:21:56;;;;;;;0.10;0.10;;;;;;;;;;5045449;28;20240;-71
2022/10/02 08:24:25;;;;;;;0.10;0.10;;;;;;;;;;5043496;28;20213;-73
2022/10/02 08:26:54;;;;;;;0.10;0.10;;;;;;;;;;5045590;28;20236;-71
2022/10/02 08:29:24;;;;;;;0.10;0.10;;;;;;;;;;5043492;28;20230;-70
2022/10/02 08:31:51;;;;;;;0.10;0.10;;;;;;;;;;5045573;28;20427;-70
2022/10/02 08:34:19;;;;;;;0.10;0.10;;;;;;;;;;5043640;28;20207;-70
2022/10/02 08:36:57;;;;;;;0.10;0.10;;;;;;;;;;5044919;28;20481;-70
2022/10/02 08:39:40;;;;;;;0.10;0.10;;;;;;;;;;5043300;28;20278;-70
2022/10/02 08:42:25;;;;;;;0.10;0.10;;;;;;;;;;5047163;28;20584;-70
2022/10/02 08:45:13;;;;;;;34.37;7.00;;;;;;;;;;5038107;28;20215;-70
2022/10/02 08:48:05;;;;;;;0.10;0.10;;;;;;;;;;5041902;28;20504;-71
2022/10/02 08:50:43;;;;;;;0.10;0.10;;;;;;;;;;5035132;28;20304;-69
2022/10/02 08:53:26;;;;;;;0.10;0.10;;;;;;;;;;5052316;28;20316;-69
2022/10/02 08:56:12;;;;;;;0.07;0.07;;;;;;;;;;5037874;28;20311;-70
2022/10/02 08:58:54;;;;;;;0.00;0.00;;;;;;;;;;5048841;28;20257;-71
2022/10/02 09:01:26;;;;;;;0.10;0.10;;;;;;;;;;5040107;28;20254;-70
2022/10/02 09:04:09;;;;;;;0.10;0.10;;;;;;;;;;5047078;28;20495;-71
2022/10/02 09:07:05;;;;;;;0.10;0.10;;;;;;;;;;5043430;28;20312;-71
2022/10/02 09:09:57;;;;;;;0.10;0.10;;;;;;;;;;5041765;28;20242;-69
2022/10/02 09:12:36;;;;;;;0.10;0.10;;;;;;;;;;5047055;28;20272;-70
2022/10/02 09:15:12;;;;;;;0.10;0.10;;;;;;;;;;5041993;28;20229;-70
2022/10/02 09:17:48;;;;;;;0.10;0.10;;;;;;;;;;5039424;28;20306;-71
2022/10/02 09:20:32;;;;;;;0.10;0.10;;;;;;;;;;5032942;28;20511;-70
2022/10/02 09:23:15;;;;;;;0.07;0.07;;;;;;;;;;5053689;28;20462;-78
2022/10/02 09:25:47;;;;;;;0.10;0.10;;;;;;;;;;5036508;28;20247;-77
2022/10/02 09:28:34;;;;;;;0.07;0.07;;;;;;;;;;5051892;28;20206;-77
2022/10/02 09:31:25;;;;;;;0.10;0.10;;;;;;;;;;5035235;28;20252;-76
2022/10/02 09:34:04;;;;;;;0.10;0.10;;;;;;;;;;4986296;28;20208;-75
2022/10/02 09:36:46;;;;;;;0.10;0.10;;;;;;;;;;5042739;28;20241;-74
2022/10/02 09:39:31;;;;;;;0.10;0.10;;;;;;;;;;5047784;28;20274;-75
2022/10/02 09:42:15;;;;;;;0.10;0.10;;;;;;;;;;5049721;28;20330;-75
2022/10/02 09:45:00;;;;;;;0.10;0.10;;;;;;;;;;5045526;28;20205;-76
2022/10/02 09:47:44;;;;;;;0.10;0.10;;;;;;;;;;5050480;28;20251;-76
2022/10/02 09:50:22;;;;;;;0.10;0.10;;;;;;;;;;5035597;28;20284;-76
2022/10/02 09:53:07;;;;;;;0.10;0.10;;;;;;;;;;5058349;28;20379;-75
2022/10/02 09:55:48;;;;;;;0.10;0.10;;;;;;;;;;5034756;28;20253;-77
2022/10/02 09:58:42;;;;;;;0.10;0.10;;;;;;;;;;5054780;28;20430;-77
2022/10/02 10:01:21;;;;;;;0.10;0.10;;;;;;;;;;5042739;28;20444;-77
2022/10/02 10:04:02;;;;;;;0.10;0.10;;;;;;;;;;5050736;28;20206;-77
2022/10/02 10:06:47;;;;;;;0.10;0.10;;;;;;;;;;5045297;28;20251;-78
2022/10/02 10:09:24;;;;;;;0.10;0.10;;;;;;;;;;5047329;28;20235;-77
2022/10/02 10:12:11;;;;;;;0.10;0.10;;;;;;;;;;5048435;28;20427;-77
2022/10/02 10:14:51;;;;;;;0.10;0.10;;;;;;;;;;5044477;28;20509;-77
2022/10/02 10:17:46;;;;;;;0.10;0.10;;;;;;;;;;5049756;28;20243;-78
2022/10/02 10:20:23;;;;;;;0.10;0.10;;;;;;;;;;5034974;28;20193;-76
2022/10/02 10:23:08;;;;;;;0.00;0.00;;;;;;;;;;5057192;28;20209;-76
2022/10/02 10:25:49;;;;;;;0.10;0.10;;;;;;;;;;5037740;28;20238;-76
2022/10/02 10:28:33;;;;;;;0.10;0.10;;;;;;;;;;5053961;28;20209;-76
2022/10/02 10:31:19;;;;;;;0.10;0.10;;;;;;;;;;5041510;28;20349;-75
2022/10/02 10:34:02;;;;;;;0.10;0.10;;;;;;;;;;5050021;28;20213;-75
2022/10/02 10:39:47;;;;;;;0.10;0.10;;;;;;;;;;5044268;28;20273;-76
2022/10/02 10:42:29;;;;;;;0.10;0.10;;;;;;;;;;5049626;28;20243;-76
2022/10/02 10:45:08;;;;;;;0.10;0.10;;;;;;;;;;5044099;28;20490;-76
2022/10/02 10:47:43;;;;;;;0.10;0.10;;;;;;;;;;5032152;28;20209;-75
2022/10/02 10:50:27;;;;;;;0.00;0.00;;;;;;;;;;5033917;28;20422;-74
2022/10/02 10:53:05;;;;;;;0.10;0.10;;;;;;;;;;5056515;28;20197;-74
2022/10/02 10:55:48;;;;;;;0.10;0.10;;;;;;;;;;5036945;28;20315;-75
2022/10/02 10:58:20;;;;;;;0.10;0.10;;;;;;;;;;5053604;28;20203;-76
2022/10/02 11:00:54;;;;;;;0.10;0.10;;;;;;;;;;5038460;28;20277;-75
2022/10/02 11:03:30;;;;;;;0.10;0.10;;;;;;;;;;5052603;28;20520;-77
2022/10/02 11:06:20;;;;;;;0.10;0.10;;;;;;;;;;5039507;28;20253;-75
2022/10/02 11:09:05;;;;;;;0.10;0.10;;;;;;;;;;5049377;28;20384;-71
2022/10/02 11:11:38;;;;;;;0.10;0.10;;;;;;;;;;5044402;28;20247;-70
2022/10/02 11:14:11;;;;;;;0.10;0.10;;;;;;;;;;5046850;28;20208;-70
2022/10/02 11:16:56;;;;;;;0.10;0.10;;;;;;;;;;5044774;28;20262;-70
2022/10/02 11:19:40;;;;;;;0.10;0.10;;;;;;;;;;5044214;28;20222;-70
2022/10/02 11:22:27;;;;;;;0.10;0.10;;;;;;;;;;5048477;28;20240;-69
2022/10/02 11:25:00;;;;;;;0.10;0.10;;;;;;;;;;5043305;28;20230;-68
2022/10/02 11:27:35;;;;;;;0.10;0.10;;;;;;;;;;5048434;28;20249;-70
2022/10/02 11:30:10;;;;;;;0.00;0.00;;;;;;;;;;5043232;28;20271;-69
2022/10/02 11:32:54;;;;;;;0.10;0.10;;;;;;;;;;5031457;28;20406;-68
2022/10/02 11:35:23;;;;;;;0.10;0.10;;;;;;;;;;5034850;28;20527;-69
2022/10/02 11:38:03;;;;;;;0.10;0.10;;;;;;;;;;5056733;28;20495;-69
2022/10/02 11:40:34;;;;;;;0.10;0.10;;;;;;;;;;5036023;28;20239;-70
2022/10/02 11:43:27;;;;;;;0.10;0.10;;;;;;;;;;5054702;28;20266;-70
2022/10/02 11:46:08;;;;;;;0.10;0.10;;;;;;;;;;5025981;28;20258;-69
2022/10/02 11:48:50;;;;;;;0.10;0.10;;;;;;;;;;5049777;28;20270;-69
2022/10/02 11:51:45;;;;;;;0.10;0.10;;;;;;;;;;5041345;28;20242;-71
2022/10/02 11:54:28;;;;;;;0.00;0.00;;;;;;;;;;5008420;28;20212;-70
2022/10/02 11:57:06;;;;;;;0.10;0.10;;;;;;;;;;5046180;28;20247;-70
2022/10/02 11:59:42;;;;;;;0.10;0.10;;;;;;;;;;5042094;28;20271;-71
2022/10/02 12:02:11;;;;;;;0.10;0.10;;;;;;;;;;5047728;28;20301;-71
2022/10/02 12:04:46;;;;;;;0.10;0.10;;;;;;;;;;5042390;28;20273;-70
2022/10/02 12:07:18;;;;;;;0.10;0.10;;;;;;;;;;5047886;28;20240;-70
2022/10/02 12:09:53;;;;;;;0.10;0.10;;;;;;;;;;5042304;28;20215;-71
2022/10/02 12:12:24;;;;;;;0.00;0.00;;;;;;;;;;5047550;28;20508;-70
2022/10/02 12:14:56;;;;;;;0.10;0.10;;;;;;;;;;5042236;28;20195;-69
2022/10/02 12:17:51;;;;;;;0.10;0.10;;;;;;;;;;5047508;28;20243;-69
2022/10/02 12:29:07;;;;;;;0.10;0.10;;;;;;;;;;5040967;28;20243;-69
2022/10/02 12:31:49;;;;;;;0.10;0.10;;;;;;;;;;5043035;28;20242;-70
2022/10/02 12:34:30;;;;;;;0.00;0.00;;;;;;;;;;5043952;28;20216;-71
2022/10/02 12:37:00;;;;;;;0.10;0.10;;;;;;;;;;5046208;28;20287;-69
2022/10/02 12:39:32;;;;;;;0.10;0.10;;;;;;;;;;5042546;28;20193;-70
2022/10/02 12:42:06;;;;;;;0.03;0.03;;;;;;;;;;5046206;28;20301;-69
2022/10/02 12:44:41;;;;;;;0.10;0.10;;;;;;;;;;5042221;28;20201;-70
2022/10/02 12:47:25;;;;;;;0.00;0.00;;;;;;;;;;5047378;28;20596;-70
2022/10/02 12:49:57;;;;;;;0.10;0.10;;;;;;;;;;5042112;28;20203;-71
2022/10/02 12:52:33;;;;;;;0.10;0.10;;;;;;;;;;5047190;28;20311;-70
2022/10/02 12:55:14;;;;;;;0.10;0.10;;;;;;;;;;5041848;28;20202;-70
2022/10/02 12:57:52;;;;;;;0.10;0.10;;;;;;;;;;5029722;28;20199;-70
2022/10/02 13:00:19;;;;;;;0.13;0.13;;;;;;;;;;5033365;28;20300;-70
2022/10/02 13:02:58;;;;;;;0.10;0.10;;;;;;;;;;5055556;28;20214;-70
2022/10/02 13:05:40;;;;;;;0.10;0.10;;;;;;;;;;5034417;28;20310;-68
2022/10/02 13:08:24;;;;;;;0.10;0.10;;;;;;;;;;5052890;28;20205;-69
2022/10/02 13:10:58;;;;;;;0.10;0.10;;;;;;;;;;5037768;28;20372;-69
2022/10/02 13:13:36;;;;;;;0.10;0.10;;;;;;;;;;5054239;28;20326;-69
2022/10/02 13:16:08;;;;;;;0.10;0.10;;;;;;;;;;5042973;28;20425;-69
2022/10/02 13:18:46;;;;;;;0.10;0.10;;;;;;;;;;5052820;28;20208;-69
2022/10/02 13:21:16;;;;;;;0.10;0.10;;;;;;;;;;5044007;28;20246;-70
2022/10/02 13:23:47;;;;;;;0.10;0.10;;;;;;;;;;5051710;28;20290;-69
2022/10/02 13:26:20;;;;;;;0.00;0.00;;;;;;;;;;5043948;28;20243;-68
2022/10/02 13:29:04;;;;;;;0.10;0.10;;;;;;;;;;5051186;28;20242;-69
2022/10/02 13:31:37;;;;;;;0.10;0.10;;;;;;;;;;5046150;28;20251;-70
2022/10/02 13:34:15;;;;;;;0.10;0.10;;;;;;;;;;5048727;28;20211;-69
2022/10/02 13:36:46;;;;;;;0.10;0.10;;;;;;;;;;5047372;28;20244;-70
2022/10/02 13:39:20;;;;;;;0.00;0.00;;;;;;;;;;5047678;28;20199;-69
2022/10/02 13:42:00;;;;;;;0.10;0.10;;;;;;;;;;5047622;28;20490;-69
2022/10/02 13:44:32;;;;;;;0.10;0.10;;;;;;;;;;5045712;28;20384;-68
2022/10/02 13:47:07;;;;;;;0.10;0.10;;;;;;;;;;5049287;28;20241;-68
2022/10/02 13:49:41;;;;;;;0.10;0.10;;;;;;;;;;5045322;28;20194;-69
2022/10/02 13:52:13;;;;;;;0.10;0.10;;;;;;;;;;5050090;28;20257;-69
2022/10/02 13:54:50;;;;;;;0.10;0.10;;;;;;;;;;5044914;28;20436;-69
2022/10/02 13:57:23;;;;;;;0.10;0.10;;;;;;;;;;5050015;28;20252;-69
2022/10/02 13:59:57;;;;;;;0.10;0.10;;;;;;;;;;5044544;28;20233;-69
2022/10/02 14:02:33;;;;;;;0.10;0.10;;;;;;;;;;5049936;28;20249;-71
2022/10/02 14:05:04;;;;;;;0.10;0.10;;;;;;;;;;5044896;28;20202;-70
2022/10/02 14:07:37;;;;;;;0.25;0.25;;;;;;;;;;5033288;28;20212;-70
2022/10/02 14:10:07;;;;;;;0.10;0.10;;;;;;;;;;5044688;28;20432;-69
2022/10/02 14:12:42;;;;;;;0.10;0.10;;;;;;;;;;5033133;28;20219;-69
2022/10/02 14:15:25;;;;;;;0.10;0.10;;;;;;;;;;5034582;28;20195;-69
2022/10/02 14:17:59;;;;;;;0.10;0.10;;;;;;;;;;5057305;28;20532;-70
2022/10/02 14:20:33;;;;;;;0.10;0.10;;;;;;;;;;5037168;28;20427;-69
2022/10/02 14:23:16;;;;;;;0.10;0.10;;;;;;;;;;5055355;28;20539;-69
2022/10/02 14:25:48;;;;;;;0.10;0.10;;;;;;;;;;5038738;28;20240;-69
2022/10/02 14:28:24;;;;;;;0.10;0.10;;;;;;;;;;5054303;28;20211;-69
2022/10/02 14:30:58;;;;;;;0.10;0.10;;;;;;;;;;5040110;28;20327;-70
2022/10/02 14:33:28;;;;;;;0.10;0.10;;;;;;;;;;5052885;28;20401;-70
2022/10/02 14:35:59;;;;;;;0.10;0.10;;;;;;;;;;5040391;28;20261;-68
2022/10/02 14:38:30;;;;;;;0.10;0.10;;;;;;;;;;5052419;28;20234;-70
2022/10/02 14:40:58;;;;;;;0.10;0.10;;;;;;;;;;5040598;28;20239;-68
2022/10/02 14:43:47;;;;;;;0.10;0.10;;;;;;;;;;5052744;28;20394;-70
2022/10/02 14:46:26;;;;;;;0.10;0.10;;;;;;;;;;5042414;28;20238;-69
2022/10/02 14:49:00;;;;;;;0.10;0.10;;;;;;;;;;5048545;28;20267;-70
2022/10/02 14:51:33;;;;;;;0.10;0.10;;;;;;;;;;5043620;28;20235;-69
2022/10/02 14:54:20;;;;;;;0.10;0.10;;;;;;;;;;5047989;28;20295;-73
2022/10/02 14:56:52;;;;;;;0.10;0.10;;;;;;;;;;5035264;28;20251;-74
2022/10/02 14:59:33;;;;;;;0.03;0.03;;;;;;;;;;5045021;28;20291;-72
2022/10/02 15:02:13;;;;;;;0.10;0.10;;;;;;;;;;5039398;28;20249;-72
2022/10/02 15:04:44;;;;;;;0.10;0.10;;;;;;;;;;5043466;28;20213;-72
2022/10/02 15:07:11;;;;;;;0.10;0.10;;;;;;;;;;5048962;28;20239;-74
2022/10/02 15:09:51;;;;;;;0.10;0.10;;;;;;;;;;5043501;28;20214;-73
2022/10/02 15:12:19;;;;;;;0.10;0.10;;;;;;;;;;5048573;28;20238;-73
2022/10/02 15:14:56;;;;;;;0.10;0.10;;;;;;;;;;5043366;28;20222;-73
2022/10/02 15:20:21;;;;;;;0.10;0.10;;;;;;;;;;5034274;28;20234;-73
2022/10/02 15:22:55;;;;;;;0.10;0.10;;;;;;;;;;5056546;28;20250;-72
2022/10/02 15:25:25;;;;;;;0.10;0.10;;;;;;;;;;5035258;28;20215;-72
2022/10/02 15:27:58;;;;;;;0.10;0.10;;;;;;;;;;5056130;28;20214;-73
2022/10/02 15:30:25;;;;;;;0.10;0.10;;;;;;;;;;5035894;28;20288;-71
2022/10/02 15:33:03;;;;;;;0.10;0.10;;;;;;;;;;5055958;28;20202;-72
2022/10/02 15:35:35;;;;;;;0.10;0.10;;;;;;;;;;5036449;28;20246;-73
2022/10/02 15:38:21;;;;;;;0.10;0.10;;;;;;;;;;5054456;28;20212;-73
2022/10/02 15:40:53;;;;;;;0.00;0.00;;;;;;;;;;5038250;28;20327;-74